SBBE/BEL METAR and TAF weather

Enter ICAO airport designator
Station Type Date Time Source
SBBE METAR 2019/10/23 07:00 UTC NOAA

SBBE 230700Z 05002KT CAVOK 23/23 Q1009


Station Type Date Time Source
SBBE Decoded METAR 2019/10/23 07:00 UTC NOAA

Belem Aeroporto , Brazil (SBBE) 01-23S 048-29W 16M
Oct 23, 2019 - 03:00 AM EDT / 2019.10.23 0700 UTC
Wind: from the NE (050 degrees) at 2 MPH (2 KT):0
Visibility: greater than 7 mile(s):0
Temperature: 73 F (23 C)
Dew Point: 73 F (23 C)
Relative Humidity: 100%
Pressure (altimeter): 29.80 in. Hg (1009 hPa)
ob: SBBE 230700Z 05002KT CAVOK 23/23 Q1009
cycle: 7

Station Type Date Time Source
SBBE TAF 2019/10/23 06:33 UTC NOAA

TAF TAF SBBE 230200Z 2306/2406 07005KT 8000 FEW012TN22/2309Z TX31/2317Z PROB30 2306/2311 3000 BR BKN005
BECMG 2312/2314 34010KT
BECMG 2315/2317 BKN030 FEW033TCU
BECMG 2320/2322 06005KT
BECMG 2322/2324 CAVOK
RMK PHI

Example: see airport list